Time;durP1;ratioP1;P1;durP2;ratioP2;P2;SDS_P1;SDS_P2;PMS_P1;PMS_P2;Temp;Humidity;BMP_temperature;BMP_pressure;BME280_temperature;BME280_humidity;BME280_pressure;Samples;Min_cycle;Max_cycle;Signal;HPM_P1;HPM_P2
2021/08/09 00:02:19;;;;;;;1.60;1.50;;;16.10;99.90;;;;;;5029097;28;20233;-70
2021/08/09 00:04:45;;;;;;;1.43;1.30;;;16.10;99.90;;;;;;5029043;28;20237;-70
2021/08/09 00:07:13;;;;;;;4.23;1.70;;;16.00;99.90;;;;;;5028697;28;20209;-71
2021/08/09 00:09:48;;;;;;;9.33;2.20;;;16.00;99.90;;;;;;5029093;28;20204;-71
2021/08/09 00:12:15;;;;;;;2.77;1.40;;;16.00;99.90;;;;;;5028587;28;20725;-70
2021/08/09 00:14:43;;;;;;;3.00;1.50;;;16.00;99.90;;;;;;5029104;28;20258;-71
2021/08/09 00:17:10;;;;;;;1.83;1.67;;;15.90;99.90;;;;;;5028442;28;20207;-71
2021/08/09 00:19:37;;;;;;;1.83;1.40;;;15.80;99.90;;;;;;5028825;28;20213;-70
2021/08/09 00:22:04;;;;;;;2.53;1.90;;;15.80;99.90;;;;;;5028587;28;20233;-71
2021/08/09 00:24:33;;;;;;;2.70;1.60;;;15.70;99.90;;;;;;5028455;28;20209;-71
2021/08/09 00:27:01;;;;;;;2.40;1.50;;;15.70;99.90;;;;;;5028624;28;20236;-71
2021/08/09 00:29:29;;;;;;;2.13;1.70;;;15.70;99.90;;;;;;5028693;28;21181;-71
2021/08/09 00:31:56;;;;;;;1.90;1.70;;;15.70;99.90;;;;;;5028599;28;20266;-70
2021/08/09 00:34:22;;;;;;;2.00;1.40;;;15.70;99.90;;;;;;5028817;28;20215;-70
2021/08/09 00:36:49;;;;;;;1.90;1.67;;;15.80;99.90;;;;;;5028839;28;20387;-70
2021/08/09 00:39:16;;;;;;;2.83;1.53;;;15.80;99.90;;;;;;5028382;28;20213;-70
2021/08/09 00:41:45;;;;;;;2.17;1.40;;;15.80;99.90;;;;;;5028618;28;20322;-70
2021/08/09 00:44:14;;;;;;;3.17;1.50;;;15.80;99.90;;;;;;5028376;28;20813;-70
2021/08/09 00:46:41;;;;;;;2.67;1.60;;;15.70;99.90;;;;;;5028664;28;20228;-70
2021/08/09 00:49:07;;;;;;;3.03;1.63;;;15.60;99.90;;;;;;5028406;28;20274;-70
2021/08/09 00:51:37;;;;;;;3.20;1.60;;;15.50;99.90;;;;;;5028648;28;20266;-70
2021/08/09 00:54:19;;;;;;;1.50;1.40;;;15.60;99.90;;;;;;5028306;28;20252;-70
2021/08/09 00:56:45;;;;;;;2.83;1.47;;;15.60;99.90;;;;;;5028557;28;20208;-72
2021/08/09 00:59:13;;;;;;;3.17;1.63;;;15.70;99.90;;;;;;5028041;28;20263;-72
2021/08/09 01:01:40;;;;;;;2.50;1.60;;;15.70;99.90;;;;;;5028451;28;20232;-70
2021/08/09 01:04:08;;;;;;;1.73;1.60;;;15.60;99.90;;;;;;5028324;28;20233;-69
2021/08/09 01:06:35;;;;;;;1.87;1.50;;;15.60;99.90;;;;;;5028399;28;20208;-69
2021/08/09 01:09:09;;;;;;;1.70;1.43;;;15.60;99.90;;;;;;5028337;28;20209;-69
2021/08/09 01:11:41;;;;;;;4.30;1.93;;;15.60;99.90;;;;;;5028323;28;20688;-69
2021/08/09 01:14:19;;;;;;;1.47;1.37;;;15.50;99.90;;;;;;5028214;28;20292;-69
2021/08/09 01:16:46;;;;;;;1.63;1.47;;;15.60;99.90;;;;;;5028184;28;20193;-69
2021/08/09 01:19:27;;;;;;;2.10;1.50;;;15.60;99.90;;;;;;5028112;28;20258;-72
2021/08/09 01:22:10;;;;;;;3.53;1.40;;;15.50;99.90;;;;;;5028047;28;20255;-72
2021/08/09 01:24:46;;;;;;;1.60;1.50;;;15.50;99.90;;;;;;5028187;28;20189;-71
2021/08/09 01:27:26;;;;;;;2.10;1.53;;;15.30;99.90;;;;;;5028164;28;20302;-71
2021/08/09 01:29:58;;;;;;;1.43;1.33;;;15.30;99.90;;;;;;5027961;28;20359;-71
2021/08/09 01:32:27;;;;;;;2.00;1.70;;;15.40;99.90;;;;;;5027858;28;20270;-70
2021/08/09 01:34:56;;;;;;;1.60;1.50;;;15.20;99.90;;;;;;5028159;28;20224;-72
2021/08/09 01:37:24;;;;;;;1.80;1.60;;;15.20;99.90;;;;;;5030608;28;20718;-73
2021/08/09 01:39:51;;;;;;;2.00;1.60;;;15.20;99.90;;;;;;5031640;28;20201;-72
2021/08/09 01:42:19;;;;;;;1.53;1.27;;;15.20;99.90;;;;;;5031644;28;20228;-72
2021/08/09 01:44:48;;;;;;;3.77;1.40;;;15.20;99.90;;;;;;5031741;28;20212;-72
2021/08/09 01:47:15;;;;;;;4.30;1.43;;;15.20;99.90;;;;;;5031672;28;20208;-73
2021/08/09 01:49:43;;;;;;;3.07;1.50;;;15.10;99.90;;;;;;5031785;28;20208;-72
2021/08/09 01:52:10;;;;;;;1.43;1.33;;;15.10;99.90;;;;;;5031444;28;20286;-72
2021/08/09 01:54:41;;;;;;;3.53;1.50;;;15.10;99.90;;;;;;5031554;28;20238;-72
2021/08/09 01:57:08;;;;;;;1.40;1.30;;;15.20;99.90;;;;;;5031550;28;20259;-72
2021/08/09 01:59:34;;;;;;;1.70;1.60;;;15.10;99.90;;;;;;5031280;28;20268;-72
2021/08/09 02:02:04;;;;;;;3.13;1.50;;;15.10;99.90;;;;;;5031331;28;20232;-72
2021/08/09 02:04:30;;;;;;;1.60;1.50;;;15.10;99.90;;;;;;5031030;28;20756;-72
2021/08/09 02:06:58;;;;;;;1.93;1.50;;;15.10;99.90;;;;;;5031051;28;20237;-72
2021/08/09 02:09:25;;;;;;;2.60;1.63;;;15.10;99.90;;;;;;5031309;28;20208;-72
2021/08/09 02:11:55;;;;;;;2.17;1.50;;;15.30;99.90;;;;;;5031363;28;20209;-72
2021/08/09 02:14:27;;;;;;;1.93;1.57;;;15.30;99.90;;;;;;5031285;28;20213;-71
2021/08/09 02:17:01;;;;;;;1.60;1.50;;;15.30;99.90;;;;;;5031005;28;20564;-71
2021/08/09 02:19:34;;;;;;;1.53;1.27;;;15.20;99.90;;;;;;5031157;28;20236;-71
2021/08/09 02:22:07;;;;;;;1.70;1.60;;;15.20;99.90;;;;;;5030783;28;20779;-72
2021/08/09 02:24:40;;;;;;;1.60;1.50;;;15.30;99.90;;;;;;5031295;28;20196;-72
2021/08/09 02:27:11;;;;;;;4.00;1.80;;;15.50;99.90;;;;;;5030839;28;20231;-71
2021/08/09 02:29:41;;;;;;;1.73;1.63;;;15.50;99.90;;;;;;5030915;28;20274;-72
2021/08/09 02:32:09;;;;;;;1.43;1.30;;;15.40;99.90;;;;;;5031048;28;20205;-71
2021/08/09 02:34:38;;;;;;;1.37;1.37;;;15.30;99.90;;;;;;5030566;28;20219;-71
2021/08/09 02:37:07;;;;;;;1.40;1.30;;;15.40;99.90;;;;;;5030685;28;20266;-71
2021/08/09 02:39:38;;;;;;;1.50;1.40;;;15.50;99.90;;;;;;5030705;28;20236;-71
2021/08/09 02:42:06;;;;;;;1.17;1.17;;;15.60;99.90;;;;;;5030693;28;20657;-70
2021/08/09 02:44:36;;;;;;;1.63;1.53;;;15.80;99.90;;;;;;5030720;28;20209;-71
2021/08/09 02:47:05;;;;;;;1.50;1.40;;;15.90;99.90;;;;;;5030366;28;20243;-71
2021/08/09 02:49:31;;;;;;;1.50;1.30;;;15.80;99.90;;;;;;5030866;28;20240;-71
2021/08/09 02:52:02;;;;;;;3.60;1.30;;;15.70;99.90;;;;;;5030083;28;20221;-71
2021/08/09 02:54:32;;;;;;;1.40;1.30;;;15.40;99.90;;;;;;5030564;28;20606;-71
2021/08/09 02:57:00;;;;;;;1.80;1.70;;;15.20;99.90;;;;;;5030342;28;20193;-72
2021/08/09 02:59:35;;;;;;;2.60;1.47;;;15.20;99.90;;;;;;5030089;28;20240;-72
2021/08/09 03:02:05;;;;;;;2.17;1.30;;;15.20;99.90;;;;;;5030206;28;20238;-71
2021/08/09 03:04:32;;;;;;;2.57;1.80;;;15.30;99.90;;;;;;5030279;28;20232;-71
2021/08/09 03:07:08;;;;;;;1.80;1.70;;;15.40;99.90;;;;;;5029789;28;20666;-71
2021/08/09 03:09:35;;;;;;;1.50;1.30;;;15.50;99.90;;;;;;5030218;28;20200;-70
2021/08/09 03:12:19;;;;;;;1.37;1.33;;;15.50;99.90;;;;;;5030056;28;20239;-70
2021/08/09 03:15:12;;;;;;;1.87;1.43;;;15.50;99.90;;;;;;5030061;28;20571;-70
2021/08/09 03:17:41;;;;;;;2.10;1.40;;;15.50;99.90;;;;;;5028223;28;20675;-70
2021/08/09 03:20:09;;;;;;;1.73;1.40;;;15.40;99.90;;;;;;5029854;28;20208;-71
2021/08/09 03:22:37;;;;;;;2.93;1.50;;;15.40;99.90;;;;;;5029405;28;20784;-72
2021/08/09 03:25:04;;;;;;;1.40;1.30;;;15.40;99.90;;;;;;5029520;28;20236;-72
2021/08/09 03:27:32;;;;;;;1.60;1.50;;;15.20;99.90;;;;;;5029751;28;20425;-72
2021/08/09 03:29:59;;;;;;;1.70;1.60;;;15.30;99.90;;;;;;5029121;28;20260;-72
2021/08/09 03:32:25;;;;;;;1.70;1.60;;;15.30;99.90;;;;;;5029827;28;20745;-72
2021/08/09 03:34:52;;;;;;;2.80;1.70;;;15.30;99.90;;;;;;5029323;28;20663;-72
2021/08/09 03:37:18;;;;;;;2.10;1.63;;;15.20;99.90;;;;;;5029873;28;20216;-72
2021/08/09 03:39:47;;;;;;;1.50;1.40;;;15.10;99.90;;;;;;5029527;28;20690;-72
2021/08/09 03:42:14;;;;;;;2.37;1.63;;;15.20;99.90;;;;;;5029431;28;20239;-72
2021/08/09 03:44:41;;;;;;;1.80;1.60;;;15.30;99.90;;;;;;5029524;28;20236;-72
2021/08/09 03:47:07;;;;;;;1.60;1.50;;;15.20;99.90;;;;;;5029367;28;20196;-72
2021/08/09 03:49:34;;;;;;;1.83;1.70;;;15.40;99.90;;;;;;5029634;28;20266;-72
2021/08/09 03:52:00;;;;;;;1.70;1.60;;;15.40;99.90;;;;;;5029242;28;20579;-72
2021/08/09 03:54:27;;;;;;;1.67;1.57;;;15.40;99.90;;;;;;5029350;28;20232;-72
2021/08/09 03:56:55;;;;;;;1.70;1.60;;;15.30;99.90;;;;;;5029099;28;20213;-73
2021/08/09 03:59:22;;;;;;;2.30;1.73;;;15.20;99.90;;;;;;5028376;28;20302;-71
2021/08/09 04:01:49;;;;;;;1.60;1.50;;;15.20;99.90;;;;;;5029257;28;20240;-71
2021/08/09 04:04:16;;;;;;;1.53;1.50;;;15.30;99.90;;;;;;5029111;28;20228;-71
2021/08/09 04:06:43;;;;;;;2.60;2.00;;;15.40;99.90;;;;;;5029173;28;20213;-71
2021/08/09 04:09:13;;;;;;;1.73;1.63;;;15.50;99.90;;;;;;5028861;28;20212;-71
2021/08/09 04:11:45;;;;;;;3.30;1.63;;;15.70;99.90;;;;;;5029036;28;20266;-71
2021/08/09 04:14:13;;;;;;;1.43;1.43;;;15.90;99.90;;;;;;5028644;28;20240;-72
2021/08/09 04:16:40;;;;;;;1.83;1.73;;;15.80;99.90;;;;;;5028824;28;20267;-73
2021/08/09 04:19:09;;;;;;;1.67;1.57;;;15.70;99.90;;;;;;5028768;28;20209;-73
2021/08/09 04:21:46;;;;;;;1.77;1.67;;;15.70;99.90;;;;;;5028577;28;20821;-72
2021/08/09 04:24:25;;;;;;;2.27;1.60;;;15.80;99.90;;;;;;5028567;28;20196;-72
2021/08/09 04:26:51;;;;;;;1.63;1.53;;;15.90;99.90;;;;;;5028399;28;20310;-72
2021/08/09 04:29:21;;;;;;;1.70;1.60;;;15.80;99.90;;;;;;5028699;28;20286;-72
2021/08/09 04:31:57;;;;;;;2.57;1.63;;;15.80;99.90;;;;;;5028654;28;20201;-75
2021/08/09 04:34:24;;;;;;;2.30;1.70;;;15.80;99.90;;;;;;5028665;28;20553;-71
2021/08/09 04:36:50;;;;;;;1.70;1.60;;;15.90;99.90;;;;;;5028537;28;20208;-71
2021/08/09 04:39:17;;;;;;;2.63;2.43;;;16.00;99.90;;;;;;5028819;28;20205;-71
2021/08/09 04:41:44;;;;;;;2.33;1.80;;;15.80;99.90;;;;;;5028607;28;20553;-71
2021/08/09 04:44:15;;;;;;;1.50;1.40;;;15.70;99.90;;;;;;5028485;28;20212;-71
2021/08/09 04:46:43;;;;;;;2.57;1.50;;;15.70;99.90;;;;;;5028531;28;20196;-71
2021/08/09 04:49:24;;;;;;;5.90;2.00;;;15.80;99.90;;;;;;5028330;28;20290;-71
2021/08/09 04:51:50;;;;;;;4.00;1.50;;;15.60;99.90;;;;;;5028529;28;20201;-70
2021/08/09 04:54:20;;;;;;;1.63;1.53;;;15.50;99.90;;;;;;5028523;28;20212;-71
2021/08/09 04:56:46;;;;;;;1.87;1.70;;;15.50;99.90;;;;;;5028529;28;20212;-71
2021/08/09 04:59:13;;;;;;;3.37;1.67;;;15.60;99.90;;;;;;5028225;28;20272;-70
2021/08/09 05:01:40;;;;;;;1.80;1.60;;;15.50;99.90;;;;;;5028113;28;20663;-71
2021/08/09 05:04:08;;;;;;;3.20;1.97;;;15.50;99.90;;;;;;5028260;28;20229;-71
2021/08/09 05:06:36;;;;;;;2.33;1.93;;;15.40;99.90;;;;;;5028287;28;20204;-70
2021/08/09 05:09:03;;;;;;;2.33;1.90;;;15.40;99.90;;;;;;5028114;28;20224;-70
2021/08/09 05:11:29;;;;;;;2.07;1.90;;;15.60;99.90;;;;;;5030021;28;20262;-70
2021/08/09 05:13:57;;;;;;;1.90;1.80;;;15.50;99.90;;;;;;5032163;28;20244;-70
2021/08/09 05:16:23;;;;;;;2.03;1.70;;;15.40;99.90;;;;;;5032536;28;20258;-71
2021/08/09 05:18:57;;;;;;;1.60;1.50;;;15.40;99.90;;;;;;5032315;28;20211;-70
2021/08/09 05:21:30;;;;;;;1.93;1.80;;;15.50;99.90;;;;;;5032304;28;20200;-70
2021/08/09 05:24:04;;;;;;;3.03;1.80;;;15.60;99.90;;;;;;5032111;28;20614;-71
2021/08/09 05:26:39;;;;;;;1.70;1.40;;;15.70;99.90;;;;;;5031916;28;20219;-72
2021/08/09 05:29:15;;;;;;;1.70;1.60;;;15.80;99.90;;;;;;5032189;28;20281;-72
2021/08/09 05:31:50;;;;;;;1.90;1.80;;;16.00;99.90;;;;;;5031976;28;20239;-72
2021/08/09 05:34:17;;;;;;;2.07;1.87;;;16.10;99.90;;;;;;5032073;28;20215;-72
2021/08/09 05:36:45;;;;;;;1.67;1.57;;;16.00;99.90;;;;;;5031757;28;20262;-71
2021/08/09 05:39:11;;;;;;;2.57;1.60;;;16.00;99.90;;;;;;5031743;28;20209;-72
2021/08/09 05:41:38;;;;;;;1.37;1.37;;;15.90;99.90;;;;;;5031833;28;20205;-72
2021/08/09 05:44:05;;;;;;;2.00;1.80;;;15.90;99.90;;;;;;5031431;28;20229;-71
2021/08/09 05:46:33;;;;;;;2.03;1.93;;;15.90;99.90;;;;;;5031412;28;20618;-70
2021/08/09 05:48:59;;;;;;;1.70;1.60;;;15.90;99.90;;;;;;5039685;28;21057;-70
2021/08/09 05:51:40;;;;;;;;;;;;;;;;;;;;;
2021/08/09 05:54:11;;;;;;;2.10;2.00;;;16.10;99.90;;;;;;5030908;28;20249;-70
2021/08/09 05:56:42;;;;;;;2.10;1.90;;;16.30;99.90;;;;;;5031632;28;20662;-71
2021/08/09 05:59:09;;;;;;;2.33;2.10;;;16.40;99.90;;;;;;5031206;28;20333;-71
2021/08/09 06:01:35;;;;;;;1.90;1.80;;;16.50;99.90;;;;;;5031697;28;20240;-71
2021/08/09 06:04:03;;;;;;;2.07;1.60;;;16.40;99.90;;;;;;5031030;28;20236;-71
2021/08/09 06:06:29;;;;;;;2.03;1.67;;;16.40;99.90;;;;;;5031494;28;20274;-71
2021/08/09 06:08:56;;;;;;;2.33;1.77;;;16.40;99.90;;;;;;5032903;28;20240;-74
2021/08/09 06:11:30;;;;;;;2.00;1.90;;;16.50;99.90;;;;;;5032065;28;20310;-72
2021/08/09 06:13:57;;;;;;;1.80;1.70;;;16.50;99.90;;;;;;5028881;28;20224;-72
2021/08/09 06:16:25;;;;;;;2.40;1.70;;;16.50;99.90;;;;;;5028829;28;20588;-72
2021/08/09 06:18:54;;;;;;;2.03;1.80;;;16.40;99.90;;;;;;5029355;28;20216;-72
2021/08/09 06:21:21;;;;;;;2.03;1.57;;;16.40;99.90;;;;;;5028985;28;20216;-72
2021/08/09 06:23:47;;;;;;;3.20;1.50;;;16.40;99.90;;;;;;5028737;28;20232;-71
2021/08/09 06:26:14;;;;;;;3.10;1.40;;;16.50;99.90;;;;;;5036470;28;20723;-76
2021/08/09 06:28:42;;;;;;;3.57;1.70;;;16.70;99.90;;;;;;5037274;28;20601;-77
2021/08/09 06:31:11;;;;;;;2.43;1.67;;;16.80;99.90;;;;;;5029037;28;20652;-76
2021/08/09 06:33:37;;;;;;;2.80;1.57;;;16.80;99.90;;;;;;5028190;28;20717;-75
2021/08/09 06:36:04;;;;;;;3.23;1.63;;;16.80;99.90;;;;;;5028396;28;20237;-75
2021/08/09 06:38:31;;;;;;;2.33;1.93;;;16.80;99.90;;;;;;5028704;28;20614;-75
2021/08/09 06:40:57;;;;;;;3.63;1.67;;;16.80;99.90;;;;;;5029560;28;20549;-75
2021/08/09 06:43:24;;;;;;;2.33;1.70;;;16.80;99.90;;;;;;5028957;28;20232;-75
2021/08/09 06:45:52;;;;;;;1.40;1.30;;;16.90;99.90;;;;;;5028858;28;20201;-74
2021/08/09 06:48:19;;;;;;;2.87;1.60;;;16.90;99.90;;;;;;5028440;28;20212;-73
2021/08/09 06:50:45;;;;;;;2.63;1.57;;;17.00;99.90;;;;;;5028207;28;20270;-73
2021/08/09 06:53:19;;;;;;;2.70;1.60;;;17.10;99.90;;;;;;5028139;28;20267;-74
2021/08/09 06:55:45;;;;;;;1.70;1.60;;;17.10;99.90;;;;;;5028264;28;20201;-74
2021/08/09 06:58:12;;;;;;;1.83;1.40;;;17.10;99.90;;;;;;5027309;28;20244;-74
2021/08/09 07:00:39;;;;;;;3.53;1.97;;;17.10;99.90;;;;;;5027900;28;20909;-74
2021/08/09 07:03:09;;;;;;;5.33;1.70;;;17.10;99.90;;;;;;5030306;28;20240;-73
2021/08/09 07:05:44;;;;;;;3.43;1.60;;;17.00;99.90;;;;;;5028057;28;20219;-73
2021/08/09 07:08:11;;;;;;;1.77;1.53;;;17.10;99.90;;;;;;5027617;28;20622;-73
2021/08/09 07:10:38;;;;;;;2.37;1.97;;;17.10;99.90;;;;;;5028283;28;20255;-70
2021/08/09 07:13:07;;;;;;;1.77;1.43;;;17.10;99.90;;;;;;5029783;28;20578;-70
2021/08/09 07:15:33;;;;;;;2.17;1.60;;;17.20;99.90;;;;;;5049958;28;20210;-70
2021/08/09 07:18:00;;;;;;;1.43;1.30;;;17.30;99.90;;;;;;5049595;28;20235;-69
2021/08/09 07:20:28;;;;;;;2.80;1.60;;;17.30;99.90;;;;;;5050092;28;20266;-70
2021/08/09 07:22:55;;;;;;;4.57;1.60;;;17.40;99.90;;;;;;5049728;28;20264;-71
2021/08/09 07:25:22;;;;;;;1.83;1.50;;;17.50;99.90;;;;;;5049853;28;20232;-71
2021/08/09 07:27:48;;;;;;;2.53;2.37;;;17.60;99.90;;;;;;5044411;28;20224;-69
2021/08/09 07:30:19;;;;;;;1.60;1.50;;;17.70;99.90;;;;;;5042052;28;20199;-71
2021/08/09 07:32:50;;;;;;;1.60;1.50;;;17.70;99.90;;;;;;5049239;28;20732;-71
2021/08/09 07:35:22;;;;;;;4.67;1.70;;;17.80;99.90;;;;;;5048390;28;20204;-70
2021/08/09 07:38:01;;;;;;;3.57;1.17;;;17.90;99.90;;;;;;5049229;28;20211;-70
2021/08/09 07:40:32;;;;;;;2.13;1.60;;;18.00;99.90;;;;;;5049472;28;20211;-70
2021/08/09 07:42:59;;;;;;;3.40;1.80;;;18.00;99.90;;;;;;5049423;28;20224;-70
2021/08/09 07:45:28;;;;;;;2.00;1.60;;;18.10;99.90;;;;;;5049158;28;20617;-70
2021/08/09 07:48:05;;;;;;;;;;;;;;;;;;;;;
2021/08/09 07:50:38;;;;;;;1.90;1.70;;;18.00;99.90;;;;;;5048974;28;20208;-71
2021/08/09 07:53:32;;;;;;;1.97;1.70;;;17.90;99.90;;;;;;5049239;28;20200;-70
2021/08/09 07:55:59;;;;;;;4.57;1.80;;;17.90;99.90;;;;;;5048932;28;20200;-70
2021/08/09 07:58:25;;;;;;;2.07;1.60;;;18.10;99.90;;;;;;5048790;28;20260;-70
2021/08/09 08:00:53;;;;;;;2.07;1.50;;;18.20;99.90;;;;;;5049075;28;20258;-70
2021/08/09 08:03:19;;;;;;;2.47;1.67;;;18.30;99.90;;;;;;5048504;28;20713;-70
2021/08/09 08:05:51;;;;;;;2.63;1.83;;;18.30;99.90;;;;;;5049058;28;20643;-71
2021/08/09 08:08:22;;;;;;;1.80;1.70;;;18.30;99.90;;;;;;5048681;28;20665;-70
2021/08/09 08:10:49;;;;;;;2.23;1.57;;;18.40;99.90;;;;;;5049175;28;20203;-70
2021/08/09 08:13:15;;;;;;;3.47;1.60;;;18.40;99.90;;;;;;5048837;28;20687;-71
2021/08/09 08:15:43;;;;;;;2.10;1.83;;;18.50;99.90;;;;;;5048383;28;20571;-71
2021/08/09 08:18:10;;;;;;;2.57;1.70;;;18.50;99.90;;;;;;5048501;28;20667;-71
2021/08/09 08:20:36;;;;;;;3.03;1.67;;;18.50;99.90;;;;;;5048644;28;20273;-71
2021/08/09 08:23:04;;;;;;;1.87;1.60;;;18.50;99.90;;;;;;5048526;28;20704;-71
2021/08/09 08:25:33;;;;;;;1.80;1.70;;;18.20;99.90;;;;;;5048451;28;20228;-70
2021/08/09 08:28:03;;;;;;;1.77;1.60;;;18.20;99.90;;;;;;5048483;28;20231;-70
2021/08/09 08:30:32;;;;;;;4.10;1.80;;;18.20;99.90;;;;;;5048705;28;20192;-71
2021/08/09 08:33:02;;;;;;;1.90;1.80;;;18.40;99.90;;;;;;5048523;28;20200;-70
2021/08/09 08:35:29;;;;;;;2.60;1.57;;;18.50;99.90;;;;;;5048683;28;20245;-70
2021/08/09 08:37:57;;;;;;;2.07;1.60;;;18.60;99.90;;;;;;5048850;28;20297;-70
2021/08/09 08:40:24;;;;;;;1.93;1.73;;;18.70;99.90;;;;;;5048624;28;20454;-71
2021/08/09 08:42:53;;;;;;;5.30;1.70;;;18.70;99.90;;;;;;5048168;28;20368;-71
2021/08/09 08:45:21;;;;;;;2.47;1.83;;;18.80;99.90;;;;;;5048168;28;20546;-71
2021/08/09 08:47:51;;;;;;;1.73;1.63;;;18.80;99.90;;;;;;5048420;28;20667;-70
2021/08/09 08:50:24;;;;;;;1.90;1.67;;;18.90;99.90;;;;;;5048687;28;20197;-71
2021/08/09 08:52:56;;;;;;;1.97;1.67;;;19.00;99.90;;;;;;5048510;28;20219;-71
2021/08/09 08:55:24;;;;;;;2.50;1.70;;;19.00;99.90;;;;;;5048291;28;20203;-71
2021/08/09 08:58:00;;;;;;;2.63;1.77;;;19.10;99.90;;;;;;5048218;28;20210;-71
2021/08/09 09:00:35;;;;;;;2.50;1.90;;;19.10;99.90;;;;;;5048362;28;20241;-71
2021/08/09 09:03:06;;;;;;;3.47;1.80;;;19.10;99.90;;;;;;5047770;28;20223;-71
2021/08/09 09:05:38;;;;;;;2.67;1.60;;;19.10;99.90;;;;;;5047946;28;20662;-71
2021/08/09 09:08:05;;;;;;;2.73;1.60;;;19.10;99.90;;;;;;5048115;28;20204;-70
2021/08/09 09:10:37;;;;;;;3.17;1.90;;;19.10;99.90;;;;;;5048214;28;20208;-71
2021/08/09 09:13:10;;;;;;;2.20;1.83;;;19.10;99.90;;;;;;5046037;28;20242;-71
2021/08/09 09:16:00;;;;;;;2.50;1.53;;;19.20;99.90;;;;;;5029100;28;20204;-71
2021/08/09 09:18:55;;;;;;;3.23;1.77;;;19.20;99.90;;;;;;5028259;28;20600;-71
2021/08/09 09:21:34;;;;;;;1.80;1.67;;;19.30;99.90;;;;;;5028093;28;20255;-71
2021/08/09 09:24:13;;;;;;;2.20;1.90;;;19.30;99.90;;;;;;5027795;28;20266;-70
2021/08/09 09:26:41;;;;;;;3.37;1.87;;;19.40;99.90;;;;;;5028015;28;20243;-71
2021/08/09 09:29:20;;;;;;;2.07;1.97;;;19.40;99.90;;;;;;5028018;28;20260;-71
2021/08/09 09:31:49;;;;;;;1.93;1.77;;;19.50;99.90;;;;;;5027774;28;20647;-71
2021/08/09 09:34:20;;;;;;;3.47;1.57;;;19.50;99.90;;;;;;5027725;28;20659;-71
2021/08/09 09:36:52;;;;;;;2.83;2.23;;;19.50;99.90;;;;;;5028133;28;20197;-70
2021/08/09 09:39:30;;;;;;;2.47;2.00;;;19.60;99.90;;;;;;5028161;28;20195;-70
2021/08/09 09:41:58;;;;;;;2.70;1.80;;;19.60;99.90;;;;;;5028132;28;20232;-71
2021/08/09 09:44:28;;;;;;;2.50;2.00;;;19.70;99.90;;;;;;5027977;28;20240;-70
2021/08/09 09:47:20;;;;;;;3.57;1.77;;;19.80;99.90;;;;;;5027986;28;20236;-70
2021/08/09 09:49:46;;;;;;;2.23;2.03;;;19.90;99.90;;;;;;5028124;28;20211;-71
2021/08/09 09:52:29;;;;;;;1.73;1.60;;;20.00;99.90;;;;;;5027595;28;21021;-71
2021/08/09 09:55:14;;;;;;;5.40;2.30;;;20.00;99.90;;;;;;5027728;28;20279;-71
2021/08/09 09:57:48;;;;;;;2.03;1.73;;;20.00;99.90;;;;;;5029714;28;20189;-70
2021/08/09 10:00:25;;;;;;;1.87;1.60;;;20.00;99.90;;;;;;5031416;28;20205;-71
2021/08/09 10:03:06;;;;;;;2.23;1.83;;;20.00;99.90;;;;;;5031375;28;20233;-71
2021/08/09 10:05:35;;;;;;;1.70;1.60;;;20.00;99.90;;;;;;5031051;28;20260;-70
2021/08/09 10:08:11;;;;;;;2.83;1.70;;;20.10;99.90;;;;;;5031183;28;20212;-70
2021/08/09 10:10:39;;;;;;;2.70;1.73;;;20.20;99.90;;;;;;5030848;28;20212;-71
2021/08/09 10:13:06;;;;;;;1.60;1.50;;;20.20;99.90;;;;;;5031173;28;20216;-70
2021/08/09 10:15:34;;;;;;;2.20;1.70;;;20.20;99.90;;;;;;5031164;28;20579;-71
2021/08/09 10:18:11;;;;;;;2.30;1.83;;;20.30;99.90;;;;;;5030824;28;20205;-71
2021/08/09 10:20:44;;;;;;;2.20;1.90;;;20.30;99.90;;;;;;5030966;28;20237;-71
2021/08/09 10:23:10;;;;;;;2.70;1.60;;;20.30;99.90;;;;;;5030933;28;20212;-71
2021/08/09 10:25:45;;;;;;;3.07;1.83;;;20.40;99.90;;;;;;5030664;28;20302;-71
2021/08/09 10:28:22;;;;;;;4.73;2.00;;;20.50;99.90;;;;;;5030576;28;20224;-71
2021/08/09 10:30:50;;;;;;;1.80;1.70;;;20.60;99.90;;;;;;5030748;28;20196;-71
2021/08/09 10:33:58;;;;;;;3.20;1.93;;;20.70;99.90;;;;;;5030802;28;20205;-71
2021/08/09 10:36:49;;;;;;;2.40;1.80;;;20.80;99.90;;;;;;5026805;28;20240;-71
2021/08/09 10:39:48;;;;;;;4.17;1.70;;;20.90;99.90;;;;;;5030025;28;20600;-71
2021/08/09 10:42:27;;;;;;;2.60;1.87;;;21.00;99.90;;;;;;5030721;28;20302;-71
2021/08/09 10:45:13;;;;;;;3.10;1.67;;;21.10;99.90;;;;;;5030608;28;20258;-70
2021/08/09 10:48:01;;;;;;;1.97;1.10;;;21.20;99.90;;;;;;5030500;28;20197;-71
2021/08/09 10:50:53;;;;;;;3.13;1.43;;;21.30;99.90;;;;;;5030454;28;20201;-71
2021/08/09 10:53:58;;;;;;;1.70;1.60;;;21.60;99.90;;;;;;5030578;28;20283;-71
2021/08/09 10:56:44;;;;;;;1.73;1.50;;;21.70;99.90;;;;;;5030339;28;20201;-71
2021/08/09 10:59:44;;;;;;;3.57;1.50;;;21.80;99.90;;;;;;5030002;28;20254;-71
2021/08/09 11:02:19;;;;;;;2.05;1.52;;;21.80;99.90;;;;;;5030134;28;20726;-71
2021/08/09 11:05:30;;;;;;;2.95;1.60;;;21.80;99.90;;;;;;5030206;28;20239;-71
2021/08/09 11:08:28;;;;;;;2.67;1.48;;;21.90;99.90;;;;;;5030529;28;20205;-71
2021/08/09 11:11:10;;;;;;;3.72;1.80;;;22.20;99.90;;;;;;5030316;28;20205;-71
2021/08/09 11:14:22;;;;;;;1.85;1.58;;;22.20;99.90;;;;;;5030487;28;20243;-71
2021/08/09 11:19:41;;;;;;;1.67;1.58;;;22.40;99.90;;;;;;5027533;28;20728;-71
2021/08/09 11:22:09;;;;;;;2.78;1.90;;;22.50;99.90;;;;;;5029801;28;20278;-71
2021/08/09 11:24:36;;;;;;;1.65;1.50;;;22.50;99.90;;;;;;5029706;28;20286;-71
2021/08/09 11:27:07;;;;;;;2.35;1.50;;;22.60;99.90;;;;;;5029636;28;20232;-71
2021/08/09 11:29:53;;;;;;;3.00;1.52;;;22.60;99.90;;;;;;5029324;28;20745;-69
2021/08/09 11:32:39;;;;;;;1.88;1.77;;;22.60;99.90;;;;;;5028933;28;20637;-69
2021/08/09 11:35:06;;;;;;;1.88;1.60;;;22.70;99.90;;;;;;5028890;28;20590;-70
2021/08/09 11:37:52;;;;;;;2.90;1.80;;;22.80;99.90;;;;;;5029300;28;20672;-70
2021/08/09 11:40:34;;;;;;;2.65;1.65;;;22.80;99.90;;;;;;5029576;28;20193;-70
2021/08/09 11:43:04;;;;;;;1.75;1.55;;;22.90;99.90;;;;;;5029148;28;20653;-70
2021/08/09 11:45:30;;;;;;;1.90;1.70;;;23.00;99.90;;;;;;5029375;28;20322;-70
2021/08/09 11:47:57;;;;;;;2.58;1.67;;;23.10;99.90;;;;;;5029406;28;20204;-70
2021/08/09 11:50:24;;;;;;;1.25;1.17;;;23.20;99.90;;;;;;5029486;28;20255;-70
2021/08/09 11:52:52;;;;;;;2.83;1.77;;;23.20;99.90;;;;;;5029468;28;20213;-70
2021/08/09 11:55:20;;;;;;;1.75;1.35;;;23.30;99.90;;;;;;5029080;28;20208;-70
2021/08/09 11:57:51;;;;;;;1.80;1.63;;;23.40;99.90;;;;;;5029381;28;20208;-70
2021/08/09 12:00:25;;;;;;;1.85;1.45;;;23.30;99.90;;;;;;5029121;28;20208;-70
2021/08/09 12:03:20;;;;;;;2.30;1.90;;;23.30;99.90;;;;;;5029109;28;20232;-70
2021/08/09 12:05:48;;;;;;;2.72;1.70;;;23.20;99.90;;;;;;5029103;28;20220;-70
2021/08/09 12:08:28;;;;;;;2.22;1.85;;;23.00;99.90;;;;;;5028895;28;20213;-71
2021/08/09 12:11:13;;;;;;;1.40;1.30;;;22.90;99.90;;;;;;5028139;28;20219;-71
2021/08/09 12:13:42;;;;;;;3.30;1.65;;;22.80;99.90;;;;;;5028912;28;20193;-70
2021/08/09 12:16:14;;;;;;;2.17;1.50;;;22.70;99.90;;;;;;5027938;28;20219;-71
2021/08/09 12:18:53;;;;;;;1.60;1.50;;;22.70;99.90;;;;;;5029068;28;20262;-71
2021/08/09 12:21:20;;;;;;;2.42;1.80;;;22.60;99.90;;;;;;5028302;28;20192;-71
2021/08/09 12:23:53;;;;;;;1.73;1.60;;;22.60;99.90;;;;;;5028715;28;20232;-71
2021/08/09 12:26:34;;;;;;;3.58;1.70;;;22.60;99.90;;;;;;5028261;28;20664;-71
2021/08/09 12:29:03;;;;;;;2.55;1.88;;;22.60;99.90;;;;;;5028618;28;20193;-70
2021/08/09 12:31:34;;;;;;;2.20;1.70;;;22.60;99.90;;;;;;5028889;28;20274;-71
2021/08/09 12:34:09;;;;;;;2.00;1.75;;;22.60;99.90;;;;;;5028543;28;20193;-71
2021/08/09 12:36:38;;;;;;;1.55;1.45;;;22.70;99.90;;;;;;5028750;28;20199;-70
2021/08/09 12:39:12;;;;;;;2.25;1.45;;;22.80;99.90;;;;;;5028329;28;20201;-70
2021/08/09 12:41:39;;;;;;;2.83;1.50;;;22.80;99.90;;;;;;5028398;28;20232;-71
2021/08/09 12:44:09;;;;;;;3.13;1.70;;;22.90;99.90;;;;;;5028320;28;20209;-71
2021/08/09 12:46:36;;;;;;;2.28;1.33;;;23.00;99.90;;;;;;5028408;28;20209;-71
2021/08/09 12:49:05;;;;;;;2.92;1.45;;;23.10;99.90;;;;;;5028279;28;20288;-71
2021/08/09 12:51:32;;;;;;;1.50;1.23;;;23.10;99.90;;;;;;5028399;28;20201;-71
2021/08/09 12:53:59;;;;;;;2.28;1.60;;;23.20;99.90;;;;;;5028342;28;20619;-71
2021/08/09 12:56:27;;;;;;;2.75;1.80;;;23.30;99.90;;;;;;5028208;28;20205;-71
2021/08/09 12:59:06;;;;;;;3.72;1.77;;;23.30;99.90;;;;;;5027975;28;20705;-71
2021/08/09 13:01:33;;;;;;;3.58;1.45;;;23.40;99.90;;;;;;5028441;28;20193;-70
2021/08/09 13:03:59;;;;;;;1.55;1.23;;;23.50;99.90;;;;;;5028413;28;20282;-70
2021/08/09 13:06:26;;;;;;;1.38;1.27;;;23.50;99.90;;;;;;5028135;28;20263;-70
2021/08/09 13:08:52;;;;;;;2.90;1.33;;;23.60;99.90;;;;;;5028304;28;20209;-70
2021/08/09 13:11:26;;;;;;;2.35;1.42;;;23.60;99.90;;;;;;5028035;28;20280;-70
2021/08/09 13:13:54;;;;;;;1.67;1.40;;;23.70;98.80;;;;;;5027989;28;20226;-70